Time,TemperatureF,DewpointF,PressureIn,WindDirection,WindDirectionDegrees,WindSpeedMPH,WindSpeedGustMPH,Humidity,HourlyPrecipIn,Conditions,Clouds,dailyrainin,SoftwareType,DateUTC
2013-08-26 06:16:00,71.6,54.1,29.91,North,-999,0.0,0.0,54,0.00,,,-99.99,FreeWX 2.04,2013-08-26 10:16:00,
2013-08-26 06:17:00,71.6,54.1,29.91,North,-999,0.0,0.0,54,0.00,,,-99.99,FreeWX 2.04,2013-08-26 10:17:00,
2013-08-26 06:22:00,71.4,54.0,29.91,North,-999,0.0,0.0,54,0.00,,,-99.99,FreeWX 2.04,2013-08-26 10:22:00,
2013-08-26 06:27:00,71.4,54.0,29.91,North,-999,0.0,0.0,54,0.00,,,-99.99,FreeWX 2.04,2013-08-26 10:27:00,
2013-08-26 06:32:00,71.4,54.0,29.91,North,-999,0.0,0.0,54,0.00,,,-99.99,FreeWX 2.04,2013-08-26 10:32:00,
2013-08-26 06:37:00,71.4,54.0,29.91,North,-999,0.0,0.0,54,0.00,,,-99.99,FreeWX 2.04,2013-08-26 10:37:00,
2013-08-26 06:42:00,71.6,54.5,29.91,North,-999,0.0,0.0,55,0.00,,,-99.99,FreeWX 2.04,2013-08-26 10:42:00,
2013-08-26 06:47:00,71.6,54.5,29.91,North,-999,0.0,0.0,55,0.00,,,-99.99,FreeWX 2.04,2013-08-26 10:47:00,
2013-08-26 06:52:00,71.6,54.5,29.91,North,-999,0.0,0.0,55,0.00,,,-99.99,FreeWX 2.04,2013-08-26 10:52:00,
2013-08-26 06:57:00,71.6,54.5,29.91,North,-999,0.0,0.0,55,0.00,,,-99.99,FreeWX 2.04,2013-08-26 10:57:00,
2013-08-26 07:02:00,71.6,54.5,29.91,North,-999,0.0,0.0,55,0.00,,,-99.99,FreeWX 2.04,2013-08-26 11:02:00,
2013-08-26 07:07:00,71.6,54.5,29.94,North,-999,0.0,4.0,55,0.00,,,-99.99,FreeWX 2.04,2013-08-26 11:07:00,
2013-08-26 07:12:00,71.6,54.5,29.94,North,-999,0.0,3.6,55,0.00,,,-99.99,FreeWX 2.04,2013-08-26 11:12:00,
2013-08-26 07:17:00,71.4,54.3,29.94,North,-999,0.0,0.0,55,0.00,,,-99.99,FreeWX 2.04,2013-08-26 11:17:00,
2013-08-26 07:22:00,71.4,54.9,29.91,North,-999,0.0,0.0,56,0.00,,,-99.99,FreeWX 2.04,2013-08-26 11:22:00,
2013-08-26 07:27:00,71.4,54.9,29.91,North,-999,0.0,0.0,56,0.00,,,-99.99,FreeWX 2.04,2013-08-26 11:27:00,
2013-08-26 07:32:00,71.4,54.9,29.91,North,-999,0.0,0.0,56,0.00,,,-99.99,FreeWX 2.04,2013-08-26 11:32:00,
2013-08-26 07:37:00,71.4,54.9,29.91,North,-999,0.0,0.0,56,0.00,,,-99.99,FreeWX 2.04,2013-08-26 11:37:00,
2013-08-26 07:42:00,71.4,55.4,29.91,North,-999,0.0,0.0,57,0.00,,,-99.99,FreeWX 2.04,2013-08-26 11:42:00,
2013-08-26 07:47:00,71.4,55.4,29.91,North,-999,0.0,0.0,57,0.00,,,-99.99,FreeWX 2.04,2013-08-26 11:47:00,
2013-08-26 07:52:00,71.4,55.4,29.91,North,-999,0.0,0.0,57,0.00,,,-99.99,FreeWX 2.04,2013-08-26 11:52:00,
2013-08-26 07:57:00,71.6,55.6,29.91,North,-999,0.0,0.0,57,0.00,,,-99.99,FreeWX 2.04,2013-08-26 11:57:00,
2013-08-26 08:02:00,71.6,55.6,29.91,North,-999,0.0,0.0,57,0.00,,,-99.99,FreeWX 2.04,2013-08-26 12:02:00,
2013-08-26 08:07:00,71.8,56.1,29.91,North,-999,0.0,0.0,58,0.00,,,-99.99,FreeWX 2.04,2013-08-26 12:07:00,
2013-08-26 08:12:00,72.0,56.3,29.91,North,-999,0.0,0.0,58,0.00,,,-99.99,FreeWX 2.04,2013-08-26 12:12:00,
2013-08-26 08:17:00,72.1,56.5,29.91,North,-999,0.0,0.0,58,0.00,,,-99.99,FreeWX 2.04,2013-08-26 12:17:00,
2013-08-26 08:22:00,72.3,56.7,29.91,North,-999,0.0,0.0,58,0.00,,,-99.99,FreeWX 2.04,2013-08-26 12:22:00,
2013-08-26 08:27:00,72.7,57.0,29.91,North,-999,0.0,0.0,58,0.00,,,-99.99,FreeWX 2.04,2013-08-26 12:27:00,
2013-08-26 08:32:00,72.9,57.2,29.91,North,-999,0.0,0.0,58,0.00,,,-99.99,FreeWX 2.04,2013-08-26 12:32:00,
2013-08-26 08:37:00,73.0,57.4,29.91,North,-999,0.0,0.0,58,0.00,,,-99.99,FreeWX 2.04,2013-08-26 12:37:00,
2013-08-26 08:42:00,73.4,57.7,29.91,North,-999,0.0,4.0,58,0.00,,,-99.99,FreeWX 2.04,2013-08-26 12:42:00,
2013-08-26 08:47:00,73.8,57.6,29.91,North,-999,0.0,0.0,57,0.00,,,-99.99,FreeWX 2.04,2013-08-26 12:47:00,
2013-08-26 08:52:00,74.1,58.5,29.91,North,-999,0.0,0.0,58,0.00,,,-99.99,FreeWX 2.04,2013-08-26 12:52:00,
2013-08-26 08:57:00,74.5,58.3,29.91,North,-999,0.0,0.0,57,0.00,,,-99.99,FreeWX 2.04,2013-08-26 12:57:00,
2013-08-26 09:02:00,75.2,58.8,29.91,North,-999,0.0,0.0,57,0.00,,,-99.99,FreeWX 2.04,2013-08-26 13:02:00,
2013-08-26 09:07:00,75.7,59.4,29.91,North,-999,0.0,0.0,57,0.00,,,-99.99,FreeWX 2.04,2013-08-26 13:07:00,
2013-08-26 09:12:00,76.5,59.5,29.91,North,-999,0.0,0.0,56,0.00,,,-99.99,FreeWX 2.04,2013-08-26 13:12:00,
2013-08-26 09:17:00,76.8,59.4,29.91,North,-999,0.0,0.0,55,0.00,,,-99.99,FreeWX 2.04,2013-08-26 13:17:00,
2013-08-26 09:22:00,77.0,59.0,29.94,North,-999,0.0,0.0,54,0.00,,,-99.99,FreeWX 2.04,2013-08-26 13:22:00,
2013-08-26 09:27:00,77.2,58.6,29.94,North,-999,0.0,0.0,53,0.00,,,-99.99,FreeWX 2.04,2013-08-26 13:27:00,
2013-08-26 09:32:00,77.2,57.6,29.94,North,-999,0.0,0.0,51,0.00,,,-99.99,FreeWX 2.04,2013-08-26 13:32:00,
2013-08-26 09:37:00,77.2,57.6,29.97,North,-999,0.0,0.0,51,0.00,,,-99.99,FreeWX 2.04,2013-08-26 13:37:00,
2013-08-26 09:42:00,76.8,56.7,29.97,North,-999,0.0,0.0,50,0.00,,,-99.99,FreeWX 2.04,2013-08-26 13:42:00,
2013-08-26 09:47:00,76.8,56.7,29.97,North,-999,0.0,0.0,50,0.00,,,-99.99,FreeWX 2.04,2013-08-26 13:47:00,
2013-08-26 09:52:00,76.6,56.7,29.97,North,-999,0.0,4.0,50,0.00,,,-99.99,FreeWX 2.04,2013-08-26 13:52:00,
2013-08-26 09:57:00,76.6,56.7,29.97,North,-999,0.0,0.0,50,0.00,,,-99.99,FreeWX 2.04,2013-08-26 13:57:00,
2013-08-26 10:02:00,76.8,56.7,29.97,North,-999,0.0,4.9,50,0.00,,,-99.99,FreeWX 2.04,2013-08-26 14:02:00,
2013-08-26 10:07:00,77.2,57.0,29.94,North,-999,0.0,0.0,50,0.00,,,-99.99,FreeWX 2.04,2013-08-26 14:07:00,
2013-08-26 10:12:00,77.4,56.7,29.94,North,-999,0.0,0.0,49,0.00,,,-99.99,FreeWX 2.04,2013-08-26 14:12:00,
2013-08-26 10:17:00,77.2,55.9,29.94,North,-999,0.0,0.0,48,0.00,,,-99.99,FreeWX 2.04,2013-08-26 14:17:00,
2013-08-26 10:22:00,76.8,55.6,29.94,North,-999,0.0,0.0,48,0.00,,,-99.99,FreeWX 2.04,2013-08-26 14:22:00,
2013-08-26 10:27:00,76.8,55.6,29.94,North,-999,0.0,0.0,48,0.00,,,-99.99,FreeWX 2.04,2013-08-26 14:27:00,
2013-08-26 10:32:00,77.0,56.3,29.94,North,-999,0.0,0.0,49,0.00,,,-99.99,FreeWX 2.04,2013-08-26 14:32:00,
2013-08-26 10:37:00,76.8,55.6,29.91,North,-999,0.0,0.0,48,0.00,,,-99.99,FreeWX 2.04,2013-08-26 14:37:00,
2013-08-26 10:42:00,76.6,55.4,29.91,North,-999,0.0,0.0,48,0.00,,,-99.99,FreeWX 2.04,2013-08-26 14:42:00,
2013-08-26 10:47:00,76.6,55.4,29.91,North,-999,0.0,0.0,48,0.00,,,-99.99,FreeWX 2.04,2013-08-26 14:47:00,
2013-08-26 10:52:00,76.5,55.9,29.91,North,-999,0.0,0.0,49,0.00,,,-99.99,FreeWX 2.04,2013-08-26 14:52:00,
2013-08-26 10:57:00,76.8,56.7,29.91,North,-999,0.0,0.0,50,0.00,,,-99.99,FreeWX 2.04,2013-08-26 14:57:00,
2013-08-26 11:02:00,76.8,56.7,29.91,North,-999,0.0,0.0,50,0.00,,,-99.99,FreeWX 2.04,2013-08-26 15:02:00,
2013-08-26 11:07:00,76.6,56.7,29.91,North,-999,0.0,0.0,50,0.00,,,-99.99,FreeWX 2.04,2013-08-26 15:07:00,
2013-08-26 11:12:00,76.3,56.8,29.91,North,-999,0.0,0.0,51,0.00,,,-99.99,FreeWX 2.04,2013-08-26 15:12:00,
2013-08-26 11:17:00,75.6,56.1,29.91,North,-999,0.0,0.0,51,0.00,,,-99.99,FreeWX 2.04,2013-08-26 15:17:00,
2013-08-26 11:22:00,75.4,57.0,29.91,North,-999,0.0,0.0,53,0.00,,,-99.99,FreeWX 2.04,2013-08-26 15:22:00,
2013-08-26 11:27:00,75.2,57.4,29.91,North,-999,0.0,0.0,54,0.00,,,-99.99,FreeWX 2.04,2013-08-26 15:27:00,
2013-08-26 11:32:00,75.2,57.9,29.91,North,-999,0.0,0.0,55,0.00,,,-99.99,FreeWX 2.04,2013-08-26 15:32:00,
2013-08-26 11:37:00,75.0,58.8,29.91,North,-999,0.0,4.0,57,0.00,,,-99.99,FreeWX 2.04,2013-08-26 15:37:00,
2013-08-26 11:42:00,75.0,59.7,29.91,North,-999,0.0,0.0,59,0.00,,,-99.99,FreeWX 2.04,2013-08-26 15:42:00,
2013-08-26 11:47:00,75.9,61.5,29.91,North,-999,0.0,0.0,61,0.00,,,-99.99,FreeWX 2.04,2013-08-26 15:47:00,
2013-08-26 11:52:00,77.0,63.0,29.88,North,-999,0.0,0.0,62,0.00,,,-99.99,FreeWX 2.04,2013-08-26 15:52:00,
2013-08-26 11:57:00,77.7,63.1,29.88,North,-999,0.0,0.0,61,0.00,,,-99.99,FreeWX 2.04,2013-08-26 15:57:00,
2013-08-26 12:02:00,77.7,62.8,29.88,North,-999,0.0,0.0,60,0.00,,,-99.99,FreeWX 2.04,2013-08-26 16:02:00,
2013-08-26 12:07:00,76.8,60.4,29.91,North,-999,0.0,0.0,57,0.00,,,-99.99,FreeWX 2.04,2013-08-26 16:07:00,
2013-08-26 12:12:00,76.1,60.3,29.91,North,-999,0.0,0.0,58,0.00,,,-99.99,FreeWX 2.04,2013-08-26 16:12:00,
2013-08-26 12:17:00,75.7,60.4,29.91,North,-999,0.0,0.0,59,0.00,,,-99.99,FreeWX 2.04,2013-08-26 16:17:00,
2013-08-26 12:22:00,75.4,60.4,29.88,North,-999,0.0,0.0,60,0.00,,,-99.99,FreeWX 2.04,2013-08-26 16:22:00,
2013-08-26 12:27:00,75.2,60.3,29.88,North,-999,0.0,0.0,60,0.00,,,-99.99,FreeWX 2.04,2013-08-26 16:27:00,
2013-08-26 12:33:00,74.5,59.7,29.88,North,-999,0.0,5.8,60,0.00,,,-99.99,FreeWX 2.04,2013-08-26 16:33:00,
2013-08-26 12:38:00,74.1,60.3,29.88,North,-999,0.0,3.1,62,0.00,,,-99.99,FreeWX 2.04,2013-08-26 16:38:00,
2013-08-26 12:43:00,73.9,60.1,29.88,North,-999,0.0,0.0,62,0.00,,,-99.99,FreeWX 2.04,2013-08-26 16:43:00,
2013-08-26 12:48:00,73.9,60.6,29.88,North,-999,0.0,0.0,63,0.04,,,-99.99,FreeWX 2.04,2013-08-26 16:48:00,
2013-08-26 12:53:00,73.6,60.3,29.88,North,-999,0.0,2.7,63,0.04,,,-99.99,FreeWX 2.04,2013-08-26 16:53:00,
2013-08-26 12:58:00,73.6,61.2,29.88,North,-999,0.0,3.1,65,0.04,,,-99.99,FreeWX 2.04,2013-08-26 16:58:00,
2013-08-26 13:03:00,73.9,62.2,29.88,North,-999,0.0,3.1,67,0.04,,,-99.99,FreeWX 2.04,2013-08-26 17:03:00,
2013-08-26 13:08:00,74.8,64.0,29.91,North,-999,0.0,4.0,69,0.04,,,-99.99,FreeWX 2.04,2013-08-26 17:08:00,
2013-08-26 13:13:00,76.3,65.8,29.91,North,-999,0.0,3.6,70,0.04,,,-99.99,FreeWX 2.04,2013-08-26 17:13:00,
2013-08-26 13:18:00,77.4,67.3,29.91,North,-999,0.0,5.4,71,0.04,,,-99.99,FreeWX 2.04,2013-08-26 17:18:00,
2013-08-26 13:23:00,77.9,67.3,29.91,North,-999,0.0,3.6,70,0.04,,,-99.99,FreeWX 2.04,2013-08-26 17:23:00,
2013-08-26 13:28:00,77.7,66.7,29.91,North,-999,0.0,4.9,69,0.04,,,-99.99,FreeWX 2.04,2013-08-26 17:28:00,
2013-08-26 13:33:00,79.0,69.1,29.91,North,-999,0.0,6.3,72,0.04,,,-99.99,FreeWX 2.04,2013-08-26 17:33:00,
2013-08-26 13:38:00,80.2,70.7,29.88,West,272,1.0,5.4,73,0.04,,,-99.99,FreeWX 2.04,2013-08-26 17:38:00,
2013-08-26 13:43:00,81.7,72.1,29.88,North,-999,0.0,4.5,73,0.04,,,-99.99,FreeWX 2.04,2013-08-26 17:43:00,
2013-08-26 13:48:00,82.2,71.8,29.88,WSW,248,1.0,4.5,71,0.00,,,-99.99,FreeWX 2.04,2013-08-26 17:48:00,
2013-08-26 13:53:00,82.6,70.9,29.88,WSW,255,2.0,4.5,68,0.00,,,-99.99,FreeWX 2.04,2013-08-26 17:53:00,
2013-08-26 13:58:00,83.3,69.8,29.88,WSW,253,1.0,5.4,64,0.00,,,-99.99,FreeWX 2.04,2013-08-26 17:58:00,
2013-08-26 14:03:00,83.8,63.7,29.88,West,280,1.0,6.3,51,0.00,,,-99.99,FreeWX 2.04,2013-08-26 18:03:00,
2013-08-26 14:08:00,85.1,61.3,29.88,WNW,292,2.0,4.5,45,0.00,,,-99.99,FreeWX 2.04,2013-08-26 18:08:00,
2013-08-26 14:13:00,86.5,62.1,29.88,WSW,246,1.0,3.6,44,0.00,,,-99.99,FreeWX 2.04,2013-08-26 18:13:00,
2013-08-26 14:18:00,87.6,60.3,29.88,North,-999,0.0,4.9,40,0.00,,,-99.99,FreeWX 2.04,2013-08-26 18:18:00,
2013-08-26 14:23:00,88.0,56.1,29.88,West,269,1.0,5.4,34,0.00,,,-99.99,FreeWX 2.04,2013-08-26 18:23:00,
2013-08-26 14:28:00,88.5,54.9,29.88,West,263,1.0,4.5,32,0.00,,,-99.99,FreeWX 2.04,2013-08-26 18:28:00,
2013-08-26 14:33:00,88.9,52.5,29.88,North,-999,0.0,4.5,29,0.00,,,-99.99,FreeWX 2.04,2013-08-26 18:33:00,
2013-08-26 14:38:00,89.6,53.1,29.88,WSW,256,1.0,4.5,29,0.00,,,-99.99,FreeWX 2.04,2013-08-26 18:38:00,
2013-08-26 14:43:00,90.5,52.9,29.88,WSW,255,1.0,4.5,28,0.00,,,-99.99,FreeWX 2.04,2013-08-26 18:43:00,
2013-08-26 14:48:00,90.5,52.9,29.88,North,-999,0.0,4.5,28,0.00,,,-99.99,FreeWX 2.04,2013-08-26 18:48:00,
2013-08-26 14:53:00,91.6,54.9,29.85,North,-999,0.0,0.0,29,0.00,,,-99.99,FreeWX 2.04,2013-08-26 18:53:00,
2013-08-26 14:58:00,90.9,52.2,29.85,North,-999,0.0,4.9,27,0.00,,,-99.99,FreeWX 2.04,2013-08-26 18:58:00,
2013-08-26 15:03:00,90.1,51.6,29.85,SW,221,1.0,5.8,27,0.00,,,-99.99,FreeWX 2.04,2013-08-26 19:03:00,
2013-08-26 15:08:00,91.0,50.4,29.85,SW,234,1.0,4.9,25,0.00,,,-99.99,FreeWX 2.04,2013-08-26 19:08:00,
2013-08-26 15:13:00,91.8,50.9,29.85,North,-999,0.0,4.9,25,0.00,,,-99.99,FreeWX 2.04,2013-08-26 19:13:00,
2013-08-26 15:18:00,92.5,48.0,29.85,NW,324,1.0,4.9,22,0.00,,,-99.99,FreeWX 2.04,2013-08-26 19:18:00,
2013-08-26 15:23:00,92.7,48.2,29.85,WNW,284,1.0,5.4,22,0.00,,,-99.99,FreeWX 2.04,2013-08-26 19:23:00,
2013-08-26 15:28:00,93.7,49.1,29.85,SW,232,2.0,5.4,22,0.00,,,-99.99,FreeWX 2.04,2013-08-26 19:28:00,
2013-08-26 15:33:00,93.4,45.0,29.85,WSW,242,2.0,5.8,19,0.00,,,-99.99,FreeWX 2.04,2013-08-26 19:33:00,
2013-08-26 15:38:00,93.6,46.4,29.85,West,264,2.0,4.0,20,0.00,,,-99.99,FreeWX 2.04,2013-08-26 19:38:00,
2013-08-26 15:43:00,93.6,45.1,29.85,West,276,1.0,4.5,19,0.00,,,-99.99,FreeWX 2.04,2013-08-26 19:43:00,
2013-08-26 15:48:00,94.1,46.9,29.85,North,-999,0.0,3.6,20,0.00,,,-99.99,FreeWX 2.04,2013-08-26 19:48:00,
2013-08-26 15:53:00,95.2,46.4,29.82,North,-999,0.0,7.4,19,0.00,,,-99.99,FreeWX 2.04,2013-08-26 19:53:00,
2013-08-26 15:58:00,95.2,45.0,29.82,WSW,249,1.0,4.5,18,0.00,,,-99.99,FreeWX 2.04,2013-08-26 19:58:00,
2013-08-26 16:03:00,94.8,44.6,29.82,West,273,2.0,4.5,18,0.00,,,-99.99,FreeWX 2.04,2013-08-26 20:03:00,
2013-08-26 16:08:00,95.0,43.3,29.82,West,267,1.0,4.0,17,0.00,,,-99.99,FreeWX 2.04,2013-08-26 20:08:00,
2013-08-26 16:13:00,95.4,43.5,29.82,North,-999,0.0,4.0,17,0.00,,,-99.99,FreeWX 2.04,2013-08-26 20:13:00,
2013-08-26 16:18:00,94.6,43.0,29.82,SSW,196,1.0,5.8,17,0.00,,,-99.99,FreeWX 2.04,2013-08-26 20:18:00,
2013-08-26 16:23:00,94.6,43.0,29.82,WSW,245,1.0,4.9,17,0.00,,,-99.99,FreeWX 2.04,2013-08-26 20:23:00,
2013-08-26 16:28:00,94.3,42.8,29.82,North,-999,0.0,3.6,17,0.00,,,-99.99,FreeWX 2.04,2013-08-26 20:28:00,
2013-08-26 16:33:00,94.3,44.2,29.82,North,-999,0.0,0.0,18,0.00,,,-99.99,FreeWX 2.04,2013-08-26 20:33:00,
2013-08-26 16:38:00,94.3,42.8,29.82,North,-999,0.0,3.1,17,0.00,,,-99.99,FreeWX 2.04,2013-08-26 20:38:00,
2013-08-26 16:43:00,93.6,43.7,29.82,North,-999,0.0,3.6,18,0.00,,,-99.99,FreeWX 2.04,2013-08-26 20:43:00,
2013-08-26 16:48:00,93.4,43.5,29.82,North,-999,0.0,0.0,18,0.00,,,-99.99,FreeWX 2.04,2013-08-26 20:48:00,
2013-08-26 16:53:00,93.9,43.9,29.82,North,-999,0.0,4.5,18,0.00,,,-99.99,FreeWX 2.04,2013-08-26 20:53:00,
2013-08-26 16:58:00,93.0,43.2,29.82,North,-999,0.0,3.6,18,0.00,,,-99.99,FreeWX 2.04,2013-08-26 20:58:00,
2013-08-26 17:03:00,89.6,40.5,29.82,North,-999,0.0,3.6,18,0.00,,,-99.99,FreeWX 2.04,2013-08-26 21:03:00,
2013-08-26 17:08:00,87.4,42.6,29.82,North,-999,0.0,0.0,21,0.00,,,-99.99,FreeWX 2.04,2013-08-26 21:08:00,
2013-08-26 17:13:00,85.5,44.6,29.82,North,-999,0.0,0.0,24,0.00,,,-99.99,FreeWX 2.04,2013-08-26 21:13:00,
2013-08-26 17:18:00,84.2,47.5,29.82,North,-999,0.0,0.0,28,0.00,,,-99.99,FreeWX 2.04,2013-08-26 21:18:00,
2013-08-26 17:23:00,83.8,48.2,29.82,North,-999,0.0,0.0,29,0.00,,,-99.99,FreeWX 2.04,2013-08-26 21:23:00,
2013-08-26 17:28:00,83.7,48.9,29.82,North,-999,0.0,0.0,30,0.00,,,-99.99,FreeWX 2.04,2013-08-26 21:28:00,
2013-08-26 17:33:00,83.3,48.6,29.82,North,-999,0.0,4.9,30,0.00,,,-99.99,FreeWX 2.04,2013-08-26 21:33:00,
2013-08-26 17:38:00,82.9,49.1,29.82,North,-999,0.0,0.0,31,0.00,,,-99.99,FreeWX 2.04,2013-08-26 21:38:00,
2013-08-26 17:43:00,82.8,49.8,29.82,North,-999,0.0,0.0,32,0.00,,,-99.99,FreeWX 2.04,2013-08-26 21:43:00,
2013-08-26 17:48:00,82.8,49.8,29.82,North,-999,0.0,4.0,32,0.00,,,-99.99,FreeWX 2.04,2013-08-26 21:48:00,
2013-08-26 17:53:00,82.0,49.3,29.82,East,92,1.0,6.3,32,0.00,,,-99.99,FreeWX 2.04,2013-08-26 21:53:00,
2013-08-26 17:58:00,80.4,48.7,29.82,ENE,74,2.0,6.9,33,0.00,,,-99.99,FreeWX 2.04,2013-08-26 21:58:00,
2013-08-26 18:03:00,79.2,49.8,29.82,East,92,2.0,5.8,36,0.00,,,-99.99,FreeWX 2.04,2013-08-26 22:03:00,
2013-08-26 18:08:00,78.8,51.1,29.82,North,-999,0.0,3.1,38,0.00,,,-99.99,FreeWX 2.04,2013-08-26 22:08:00,
2013-08-26 18:13:00,79.0,51.8,29.82,North,-999,0.0,5.4,39,0.00,,,-99.99,FreeWX 2.04,2013-08-26 22:13:00,
2013-08-26 18:18:00,78.8,51.1,29.82,North,-999,0.0,4.0,38,0.00,,,-99.99,FreeWX 2.04,2013-08-26 22:18:00,
2013-08-26 18:23:00,78.4,50.7,29.82,North,-999,0.0,5.4,38,0.00,,,-99.99,FreeWX 2.04,2013-08-26 22:23:00,
2013-08-26 18:28:00,78.3,50.5,29.82,North,-999,0.0,0.0,38,0.00,,,-99.99,FreeWX 2.04,2013-08-26 22:28:00,
2013-08-26 18:33:00,78.1,51.8,29.82,North,-999,0.0,4.5,40,0.00,,,-99.99,FreeWX 2.04,2013-08-26 22:33:00,
2013-08-26 18:38:00,78.1,51.8,29.82,North,-999,0.0,4.0,40,0.00,,,-99.99,FreeWX 2.04,2013-08-26 22:38:00,
2013-08-26 18:43:00,78.1,51.8,29.82,North,-999,0.0,0.0,40,0.00,,,-99.99,FreeWX 2.04,2013-08-26 22:43:00,
2013-08-26 18:48:00,78.3,52.0,29.82,North,-999,0.0,0.0,40,0.00,,,-99.99,FreeWX 2.04,2013-08-26 22:48:00,
2013-08-26 18:53:00,78.1,51.8,29.82,North,-999,0.0,6.7,40,0.00,,,-99.99,FreeWX 2.04,2013-08-26 22:53:00,
2013-08-26 18:58:00,77.9,51.6,29.82,North,-999,0.0,0.0,40,0.00,,,-99.99,FreeWX 2.04,2013-08-26 22:58:00,
2013-08-26 19:03:00,77.7,51.4,29.82,North,-999,0.0,3.6,40,0.00,,,-99.99,FreeWX 2.04,2013-08-26 23:03:00,
2013-08-26 19:08:00,77.4,51.8,29.82,North,-999,0.0,4.9,41,0.00,,,-99.99,FreeWX 2.04,2013-08-26 23:08:00,
2013-08-26 19:13:00,77.0,52.2,29.82,ESE,119,1.0,5.8,42,0.00,,,-99.99,FreeWX 2.04,2013-08-26 23:13:00,
2013-08-26 19:18:00,76.8,52.5,29.82,SE,144,1.0,4.0,43,0.00,,,-99.99,FreeWX 2.04,2013-08-26 23:18:00,
2013-08-26 19:23:00,76.5,52.3,29.82,North,-999,0.0,2.7,43,0.00,,,-99.99,FreeWX 2.04,2013-08-26 23:23:00,
2013-08-26 19:28:00,76.3,52.2,29.82,North,-999,0.0,4.0,43,0.00,,,-99.99,FreeWX 2.04,2013-08-26 23:28:00,
2013-08-26 19:33:00,75.9,51.8,29.82,North,-999,0.0,4.5,43,0.00,,,-99.99,FreeWX 2.04,2013-08-26 23:33:00,
2013-08-26 19:38:00,75.6,52.2,29.85,North,-999,0.0,5.4,44,0.00,,,-99.99,FreeWX 2.04,2013-08-26 23:38:00,
2013-08-26 19:43:00,75.0,51.6,29.85,SE,143,1.0,4.5,44,0.00,,,-99.99,FreeWX 2.04,2013-08-26 23:43:00,
2013-08-26 19:48:00,74.5,51.1,29.85,North,-999,0.0,0.0,44,0.00,,,-99.99,FreeWX 2.04,2013-08-26 23:48:00,
2013-08-26 19:53:00,74.1,51.4,29.85,North,-999,0.0,4.0,45,0.00,,,-99.99,FreeWX 2.04,2013-08-26 23:53:00,
2013-08-26 19:58:00,73.8,51.6,29.85,North,-999,0.0,0.0,46,0.00,,,-99.99,FreeWX 2.04,2013-08-26 23:58:00,
2013-08-26 20:03:00,73.4,51.3,29.85,North,-999,0.0,0.0,46,0.00,,,-99.99,FreeWX 2.04,2013-08-27 00:03:00,
2013-08-26 20:08:00,73.2,51.8,29.85,North,-999,0.0,0.0,47,0.00,,,-99.99,FreeWX 2.04,2013-08-27 00:08:00,
2013-08-26 20:13:00,72.9,51.4,29.85,North,-999,0.0,0.0,47,0.00,,,-99.99,FreeWX 2.04,2013-08-27 00:13:00,
2013-08-26 20:18:00,72.7,51.3,29.85,North,-999,0.0,0.0,47,0.00,,,-99.99,FreeWX 2.04,2013-08-27 00:18:00,
2013-08-26 20:23:00,72.5,51.6,29.85,North,-999,0.0,0.0,48,0.00,,,-99.99,FreeWX 2.04,2013-08-27 00:23:00,
2013-08-26 20:28:00,72.5,52.2,29.85,North,-999,0.0,0.0,49,0.00,,,-99.99,FreeWX 2.04,2013-08-27 00:28:00,
2013-08-26 20:33:00,72.3,52.2,29.85,North,-999,0.0,0.0,49,0.00,,,-99.99,FreeWX 2.04,2013-08-27 00:33:00,
2013-08-26 20:38:00,72.1,52.0,29.85,North,-999,0.0,0.0,49,0.00,,,-99.99,FreeWX 2.04,2013-08-27 00:38:00,
2013-08-26 20:43:00,72.0,52.3,29.85,North,-999,0.0,0.0,50,0.00,,,-99.99,FreeWX 2.04,2013-08-27 00:43:00,
2013-08-26 20:48:00,71.8,52.2,29.85,North,-999,0.0,0.0,50,0.00,,,-99.99,FreeWX 2.04,2013-08-27 00:48:00,
2013-08-26 20:53:00,71.6,52.5,29.85,North,-999,0.0,0.0,51,0.00,,,-99.99,FreeWX 2.04,2013-08-27 00:53:00,
2013-08-26 20:58:00,71.4,52.3,29.85,North,-999,0.0,0.0,51,0.00,,,-99.99,FreeWX 2.04,2013-08-27 00:58:00,
2013-08-26 21:03:00,71.2,52.7,29.85,North,-999,0.0,0.0,52,0.00,,,-99.99,FreeWX 2.04,2013-08-27 01:03:00,
2013-08-26 21:08:00,71.2,53.2,29.85,North,-999,0.0,0.0,53,0.00,,,-99.99,FreeWX 2.04,2013-08-27 01:08:00,
2013-08-26 21:13:00,71.1,53.1,29.85,North,-999,0.0,0.0,53,0.00,,,-99.99,FreeWX 2.04,2013-08-27 01:13:00,
2013-08-26 21:18:00,70.9,53.4,29.85,North,-999,0.0,0.0,54,0.00,,,-99.99,FreeWX 2.04,2013-08-27 01:18:00,
2013-08-26 21:23:00,70.7,53.2,29.85,North,-999,0.0,0.0,54,0.00,,,-99.99,FreeWX 2.04,2013-08-27 01:23:00,
2013-08-26 21:28:00,70.7,53.8,29.85,North,-999,0.0,0.0,55,0.00,,,-99.99,FreeWX 2.04,2013-08-27 01:28:00,
2013-08-26 21:33:00,70.5,53.6,29.85,North,-999,0.0,0.0,55,0.00,,,-99.99,FreeWX 2.04,2013-08-27 01:33:00,
2013-08-26 21:38:00,70.3,53.4,29.85,North,-999,0.0,0.0,55,0.00,,,-99.99,FreeWX 2.04,2013-08-27 01:38:00,
2013-08-26 21:43:00,70.3,54.0,29.85,North,-999,0.0,0.0,56,0.00,,,-99.99,FreeWX 2.04,2013-08-27 01:43:00,
2013-08-26 21:48:00,70.2,53.8,29.85,North,-999,0.0,0.0,56,0.00,,,-99.99,FreeWX 2.04,2013-08-27 01:48:00,
2013-08-26 21:53:00,70.2,53.8,29.85,North,-999,0.0,0.0,56,0.00,,,-99.99,FreeWX 2.04,2013-08-27 01:53:00,
2013-08-26 21:58:00,70.0,54.0,29.85,North,-999,0.0,0.0,57,0.00,,,-99.99,FreeWX 2.04,2013-08-27 01:58:00,